sensor_id;sensor_type;location;lat;lon;timestamp;temperature;humidity
19610;DHT22;9952;47.122;-1.638;2023-02-22T00:00:37;10.60;99.90
19610;DHT22;9952;47.122;-1.638;2023-02-22T00:05:25;10.60;99.90
19610;DHT22;9952;47.122;-1.638;2023-02-22T00:10:06;10.60;99.90
19610;DHT22;9952;47.122;-1.638;2023-02-22T00:14:52;10.60;99.90
19610;DHT22;9952;47.122;-1.638;2023-02-22T00:19:33;10.60;99.90
19610;DHT22;9952;47.122;-1.638;2023-02-22T00:24:14;10.60;99.90
19610;DHT22;9952;47.122;-1.638;2023-02-22T00:29:02;10.60;99.90
19610;DHT22;9952;47.122;-1.638;2023-02-22T00:33:43;10.60;99.90
19610;DHT22;9952;47.122;-1.638;2023-02-22T00:38:24;10.60;99.90
19610;DHT22;9952;47.122;-1.638;2023-02-22T00:43:05;10.70;99.90
19610;DHT22;9952;47.122;-1.638;2023-02-22T00:47:47;10.70;99.90
19610;DHT22;9952;47.122;-1.638;2023-02-22T00:52:28;10.60;99.90
19610;DHT22;9952;47.122;-1.638;2023-02-22T00:57:09;10.60;99.90
19610;DHT22;9952;47.122;-1.638;2023-02-22T01:01:49;10.60;99.90
19610;DHT22;9952;47.122;-1.638;2023-02-22T01:06:30;10.60;99.90
19610;DHT22;9952;47.122;-1.638;2023-02-22T01:11:12;10.60;99.90
19610;DHT22;9952;47.122;-1.638;2023-02-22T01:15:53;10.50;99.90
19610;DHT22;9952;47.122;-1.638;2023-02-22T01:20:36;10.40;99.90
19610;DHT22;9952;47.122;-1.638;2023-02-22T01:25:23;10.40;99.90
19610;DHT22;9952;47.122;-1.638;2023-02-22T01:30:06;10.30;99.90
19610;DHT22;9952;47.122;-1.638;2023-02-22T01:34:47;10.20;99.90
19610;DHT22;9952;47.122;-1.638;2023-02-22T01:39:28;10.20;99.90
19610;DHT22;9952;47.122;-1.638;2023-02-22T01:44:27;10.10;99.90
19610;DHT22;9952;47.122;-1.638;2023-02-22T01:49:08;10.10;99.90
19610;DHT22;9952;47.122;-1.638;2023-02-22T01:54:06;10.10;99.90
19610;DHT22;9952;47.122;-1.638;2023-02-22T01:58:53;10.10;99.90
19610;DHT22;9952;47.122;-1.638;2023-02-22T02:03:36;10.10;99.90
19610;DHT22;9952;47.122;-1.638;2023-02-22T02:08:26;10.20;99.90
19610;DHT22;9952;47.122;-1.638;2023-02-22T02:13:09;10.20;99.90
19610;DHT22;9952;47.122;-1.638;2023-02-22T02:17:52;10.20;99.90
19610;DHT22;9952;47.122;-1.638;2023-02-22T02:22:53;10.30;99.90
19610;DHT22;9952;47.122;-1.638;2023-02-22T02:28:17;10.20;99.90
19610;DHT22;9952;47.122;-1.638;2023-02-22T02:38:36;10.10;99.90
19610;DHT22;9952;47.122;-1.638;2023-02-22T02:43:41;10.10;99.90
19610;DHT22;9952;47.122;-1.638;2023-02-22T02:48:27;10.10;99.90
19610;DHT22;9952;47.122;-1.638;2023-02-22T02:53:09;10.10;99.90
19610;DHT22;9952;47.122;-1.638;2023-02-22T02:57:50;10.10;99.90
19610;DHT22;9952;47.122;-1.638;2023-02-22T03:07:37;10.20;99.90
19610;DHT22;9952;47.122;-1.638;2023-02-22T03:22:39;10.20;99.90
19610;DHT22;9952;47.122;-1.638;2023-02-22T03:27:36;10.20;99.90
19610;DHT22;9952;47.122;-1.638;2023-02-22T03:32:21;10.10;99.90
19610;DHT22;9952;47.122;-1.638;2023-02-22T03:37:09;10.10;99.90
19610;DHT22;9952;47.122;-1.638;2023-02-22T03:41:54;10.20;99.90
19610;DHT22;9952;47.122;-1.638;2023-02-22T03:46:38;10.10;99.90
19610;DHT22;9952;47.122;-1.638;2023-02-22T03:51:20;10.10;99.90
19610;DHT22;9952;47.122;-1.638;2023-02-22T03:56:03;10.00;99.90
19610;DHT22;9952;47.122;-1.638;2023-02-22T04:00:47;10.10;99.90
19610;DHT22;9952;47.122;-1.638;2023-02-22T04:05:32;10.00;99.90
19610;DHT22;9952;47.122;-1.638;2023-02-22T04:10:14;10.00;99.90
19610;DHT22;9952;47.122;-1.638;2023-02-22T04:14:55;10.10;99.90
19610;DHT22;9952;47.122;-1.638;2023-02-22T04:19:36;10.10;99.90
19610;DHT22;9952;47.122;-1.638;2023-02-22T04:24:17;10.10;99.90
19610;DHT22;9952;47.122;-1.638;2023-02-22T04:28:58;10.10;99.90
19610;DHT22;9952;47.122;-1.638;2023-02-22T04:33:38;10.20;99.90
19610;DHT22;9952;47.122;-1.638;2023-02-22T04:38:19;10.20;99.90
19610;DHT22;9952;47.122;-1.638;2023-02-22T04:43:00;10.20;99.90
19610;DHT22;9952;47.122;-1.638;2023-02-22T04:47:41;10.20;99.90
19610;DHT22;9952;47.122;-1.638;2023-02-22T04:52:22;10.20;99.90
19610;DHT22;9952;47.122;-1.638;2023-02-22T04:57:03;10.20;99.90
19610;DHT22;9952;47.122;-1.638;2023-02-22T05:01:43;10.10;99.90
19610;DHT22;9952;47.122;-1.638;2023-02-22T05:06:24;10.20;99.90
19610;DHT22;9952;47.122;-1.638;2023-02-22T05:11:05;10.10;99.90
19610;DHT22;9952;47.122;-1.638;2023-02-22T05:15:46;10.00;99.90
19610;DHT22;9952;47.122;-1.638;2023-02-22T05:20:33;10.00;99.90
19610;DHT22;9952;47.122;-1.638;2023-02-22T05:25:14;9.90;99.90
19610;DHT22;9952;47.122;-1.638;2023-02-22T05:29:55;9.90;99.90
19610;DHT22;9952;47.122;-1.638;2023-02-22T05:34:35;9.90;99.90
19610;DHT22;9952;47.122;-1.638;2023-02-22T05:39:16;9.90;99.90
19610;DHT22;9952;47.122;-1.638;2023-02-22T05:43:57;10.00;99.90
19610;DHT22;9952;47.122;-1.638;2023-02-22T05:48:38;10.00;99.90
19610;DHT22;9952;47.122;-1.638;2023-02-22T05:53:18;10.00;99.90
19610;DHT22;9952;47.122;-1.638;2023-02-22T05:57:59;10.00;99.90
19610;DHT22;9952;47.122;-1.638;2023-02-22T06:02:41;10.00;99.90
19610;DHT22;9952;47.122;-1.638;2023-02-22T06:07:21;10.00;99.90
19610;DHT22;9952;47.122;-1.638;2023-02-22T06:12:02;10.00;99.90
19610;DHT22;9952;47.122;-1.638;2023-02-22T06:16:43;10.10;99.90
19610;DHT22;9952;47.122;-1.638;2023-02-22T06:21:24;10.10;99.90
19610;DHT22;9952;47.122;-1.638;2023-02-22T06:26:05;10.10;99.90
19610;DHT22;9952;47.122;-1.638;2023-02-22T06:30:46;10.10;99.90
19610;DHT22;9952;47.122;-1.638;2023-02-22T06:35:27;10.10;99.90
19610;DHT22;9952;47.122;-1.638;2023-02-22T06:40:08;10.10;99.90
19610;DHT22;9952;47.122;-1.638;2023-02-22T06:44:50;10.10;99.90
19610;DHT22;9952;47.122;-1.638;2023-02-22T06:49:31;10.10;99.90
19610;DHT22;9952;47.122;-1.638;2023-02-22T06:54:12;10.10;99.90
19610;DHT22;9952;47.122;-1.638;2023-02-22T06:58:53;10.10;99.90
19610;DHT22;9952;47.122;-1.638;2023-02-22T07:03:34;10.10;99.90
19610;DHT22;9952;47.122;-1.638;2023-02-22T07:08:15;10.10;99.90
19610;DHT22;9952;47.122;-1.638;2023-02-22T07:12:56;10.10;99.90
19610;DHT22;9952;47.122;-1.638;2023-02-22T07:17:36;10.10;99.90
19610;DHT22;9952;47.122;-1.638;2023-02-22T07:22:19;10.10;99.90
19610;DHT22;9952;47.122;-1.638;2023-02-22T07:27:01;10.10;99.90
19610;DHT22;9952;47.122;-1.638;2023-02-22T07:31:42;10.10;99.90
19610;DHT22;9952;47.122;-1.638;2023-02-22T07:36:22;10.00;99.90
19610;DHT22;9952;47.122;-1.638;2023-02-22T07:41:03;10.10;99.90
19610;DHT22;9952;47.122;-1.638;2023-02-22T07:45:45;10.10;99.90
19610;DHT22;9952;47.122;-1.638;2023-02-22T07:50:28;10.20;99.90
19610;DHT22;9952;47.122;-1.638;2023-02-22T07:55:10;10.20;99.90
19610;DHT22;9952;47.122;-1.638;2023-02-22T07:59:50;10.20;99.90
19610;DHT22;9952;47.122;-1.638;2023-02-22T08:04:31;10.20;99.90
19610;DHT22;9952;47.122;-1.638;2023-02-22T08:09:12;10.30;99.90
19610;DHT22;9952;47.122;-1.638;2023-02-22T08:13:53;10.30;99.90
19610;DHT22;9952;47.122;-1.638;2023-02-22T08:18:33;10.30;99.90
19610;DHT22;9952;47.122;-1.638;2023-02-22T08:23:16;10.30;99.90
19610;DHT22;9952;47.122;-1.638;2023-02-22T08:28:02;10.40;99.90
19610;DHT22;9952;47.122;-1.638;2023-02-22T08:32:48;10.40;99.90
19610;DHT22;9952;47.122;-1.638;2023-02-22T08:37:29;10.40;99.90
19610;DHT22;9952;47.122;-1.638;2023-02-22T08:42:10;10.40;99.90
19610;DHT22;9952;47.122;-1.638;2023-02-22T08:46:51;10.50;99.90
19610;DHT22;9952;47.122;-1.638;2023-02-22T08:51:35;10.50;99.90
19610;DHT22;9952;47.122;-1.638;2023-02-22T08:56:16;10.50;99.90
19610;DHT22;9952;47.122;-1.638;2023-02-22T09:01:00;10.50;99.90
19610;DHT22;9952;47.122;-1.638;2023-02-22T09:05:42;10.50;99.90
19610;DHT22;9952;47.122;-1.638;2023-02-22T09:10:26;10.50;99.90
19610;DHT22;9952;47.122;-1.638;2023-02-22T09:15:08;10.50;99.90
19610;DHT22;9952;47.122;-1.638;2023-02-22T09:19:49;10.50;99.90
19610;DHT22;9952;47.122;-1.638;2023-02-22T09:24:30;10.50;99.90
19610;DHT22;9952;47.122;-1.638;2023-02-22T09:29:12;10.50;99.90
19610;DHT22;9952;47.122;-1.638;2023-02-22T09:33:53;10.60;99.90
19610;DHT22;9952;47.122;-1.638;2023-02-22T09:38:33;10.60;99.90
19610;DHT22;9952;47.122;-1.638;2023-02-22T09:43:55;10.70;99.90
19610;DHT22;9952;47.122;-1.638;2023-02-22T09:49:02;10.80;99.90
19610;DHT22;9952;47.122;-1.638;2023-02-22T09:53:46;10.90;99.90
19610;DHT22;9952;47.122;-1.638;2023-02-22T09:58:34;10.90;99.90
19610;DHT22;9952;47.122;-1.638;2023-02-22T10:03:48;10.90;99.90
19610;DHT22;9952;47.122;-1.638;2023-02-22T10:08:31;10.90;99.90
19610;DHT22;9952;47.122;-1.638;2023-02-22T10:29:05;10.80;99.90
19610;DHT22;9952;47.122;-1.638;2023-02-22T10:33:56;10.90;99.90
19610;DHT22;9952;47.122;-1.638;2023-02-22T10:38:46;10.90;99.90
19610;DHT22;9952;47.122;-1.638;2023-02-22T10:43:31;11.00;99.90
19610;DHT22;9952;47.122;-1.638;2023-02-22T10:48:15;11.10;99.90
19610;DHT22;9952;47.122;-1.638;2023-02-22T10:52:57;11.20;99.90
19610;DHT22;9952;47.122;-1.638;2023-02-22T10:57:39;11.30;99.90
19610;DHT22;9952;47.122;-1.638;2023-02-22T11:02:32;11.30;99.90
19610;DHT22;9952;47.122;-1.638;2023-02-22T11:12:10;11.50;99.90
19610;DHT22;9952;47.122;-1.638;2023-02-22T11:16:55;11.60;99.90
19610;DHT22;9952;47.122;-1.638;2023-02-22T11:21:37;11.70;99.90
19610;DHT22;9952;47.122;-1.638;2023-02-22T11:26:19;11.80;99.90
19610;DHT22;9952;47.122;-1.638;2023-02-22T11:31:16;11.80;99.90
19610;DHT22;9952;47.122;-1.638;2023-02-22T11:36:00;11.90;99.90
19610;DHT22;9952;47.122;-1.638;2023-02-22T11:40:44;12.00;99.90
19610;DHT22;9952;47.122;-1.638;2023-02-22T11:45:25;12.00;99.90
19610;DHT22;9952;47.122;-1.638;2023-02-22T11:50:20;12.30;99.90
19610;DHT22;9952;47.122;-1.638;2023-02-22T11:55:22;12.50;99.90
19610;DHT22;9952;47.122;-1.638;2023-02-22T12:00:56;12.70;99.90
19610;DHT22;9952;47.122;-1.638;2023-02-22T12:05:27;12.70;99.90
19610;DHT22;9952;47.122;-1.638;2023-02-22T12:10:18;12.60;99.90
19610;DHT22;9952;47.122;-1.638;2023-02-22T12:15:22;12.50;99.90
19610;DHT22;9952;47.122;-1.638;2023-02-22T12:20:19;12.50;99.90
19610;DHT22;9952;47.122;-1.638;2023-02-22T12:25:21;12.50;99.90
19610;DHT22;9952;47.122;-1.638;2023-02-22T12:30:14;12.50;99.90
19610;DHT22;9952;47.122;-1.638;2023-02-22T12:35:07;12.50;99.90
19610;DHT22;9952;47.122;-1.638;2023-02-22T12:40:04;12.60;99.90
19610;DHT22;9952;47.122;-1.638;2023-02-22T12:44:55;12.70;99.90
19610;DHT22;9952;47.122;-1.638;2023-02-22T12:49:50;12.80;99.90
19610;DHT22;9952;47.122;-1.638;2023-02-22T12:59:49;12.40;99.90
19610;DHT22;9952;47.122;-1.638;2023-02-22T13:04:31;12.30;99.90
19610;DHT22;9952;47.122;-1.638;2023-02-22T13:09:44;12.30;99.90
19610;DHT22;9952;47.122;-1.638;2023-02-22T13:24:41;12.20;99.90
19610;DHT22;9952;47.122;-1.638;2023-02-22T13:29:29;11.90;99.90
19610;DHT22;9952;47.122;-1.638;2023-02-22T13:34:36;11.80;99.90
19610;DHT22;9952;47.122;-1.638;2023-02-22T13:49:29;11.80;99.90
19610;DHT22;9952;47.122;-1.638;2023-02-22T13:54:18;11.80;99.90
19610;DHT22;9952;47.122;-1.638;2023-02-22T13:59:02;11.90;99.90
19610;DHT22;9952;47.122;-1.638;2023-02-22T14:03:43;11.90;99.90
19610;DHT22;9952;47.122;-1.638;2023-02-22T14:13:08;11.80;99.90
19610;DHT22;9952;47.122;-1.638;2023-02-22T14:18:01;11.80;99.90
19610;DHT22;9952;47.122;-1.638;2023-02-22T14:22:42;11.70;99.90
19610;DHT22;9952;47.122;-1.638;2023-02-22T14:27:38;11.70;99.90
19610;DHT22;9952;47.122;-1.638;2023-02-22T14:32:19;11.60;99.90
19610;DHT22;9952;47.122;-1.638;2023-02-22T14:37:34;11.50;99.90
19610;DHT22;9952;47.122;-1.638;2023-02-22T14:42:32;11.40;99.90
19610;DHT22;9952;47.122;-1.638;2023-02-22T14:47:29;11.30;99.90
19610;DHT22;9952;47.122;-1.638;2023-02-22T14:52:20;11.30;99.90
19610;DHT22;9952;47.122;-1.638;2023-02-22T14:57:11;11.30;99.90
19610;DHT22;9952;47.122;-1.638;2023-02-22T15:02:10;11.30;99.90
19610;DHT22;9952;47.122;-1.638;2023-02-22T15:06:54;11.20;99.90
19610;DHT22;9952;47.122;-1.638;2023-02-22T15:11:35;10.90;99.90
19610;DHT22;9952;47.122;-1.638;2023-02-22T15:16:16;10.90;99.90
19610;DHT22;9952;47.122;-1.638;2023-02-22T15:25:50;11.20;99.90
19610;DHT22;9952;47.122;-1.638;2023-02-22T15:30:32;11.10;99.90
19610;DHT22;9952;47.122;-1.638;2023-02-22T15:35:23;11.00;99.90
19610;DHT22;9952;47.122;-1.638;2023-02-22T15:40:15;11.00;99.90
19610;DHT22;9952;47.122;-1.638;2023-02-22T15:44:57;11.10;99.90
19610;DHT22;9952;47.122;-1.638;2023-02-22T15:49:37;11.10;99.90
19610;DHT22;9952;47.122;-1.638;2023-02-22T15:54:18;11.10;99.90
19610;DHT22;9952;47.122;-1.638;2023-02-22T15:59:11;11.00;99.90
19610;DHT22;9952;47.122;-1.638;2023-02-22T16:03:55;10.90;99.90
19610;DHT22;9952;47.122;-1.638;2023-02-22T16:08:47;10.90;99.90
19610;DHT22;9952;47.122;-1.638;2023-02-22T16:13:33;10.90;99.90
19610;DHT22;9952;47.122;-1.638;2023-02-22T16:18:30;11.00;99.90
19610;DHT22;9952;47.122;-1.638;2023-02-22T16:23:24;11.10;99.90
19610;DHT22;9952;47.122;-1.638;2023-02-22T16:28:29;11.00;99.90
19610;DHT22;9952;47.122;-1.638;2023-02-22T16:33:15;10.80;99.90
19610;DHT22;9952;47.122;-1.638;2023-02-22T16:42:41;10.70;99.90
19610;DHT22;9952;47.122;-1.638;2023-02-22T16:47:22;10.70;99.90
19610;DHT22;9952;47.122;-1.638;2023-02-22T16:52:05;10.60;99.90
19610;DHT22;9952;47.122;-1.638;2023-02-22T16:56:46;10.50;99.90
19610;DHT22;9952;47.122;-1.638;2023-02-22T17:01:27;10.60;99.90
19610;DHT22;9952;47.122;-1.638;2023-02-22T17:06:08;10.50;99.90
19610;DHT22;9952;47.122;-1.638;2023-02-22T17:10:52;10.50;99.90
19610;DHT22;9952;47.122;-1.638;2023-02-22T17:15:36;10.40;99.90
19610;DHT22;9952;47.122;-1.638;2023-02-22T17:20:17;10.40;99.90
19610;DHT22;9952;47.122;-1.638;2023-02-22T17:25:33;10.00;99.90
19610;DHT22;9952;47.122;-1.638;2023-02-22T17:30:16;9.40;99.90
19610;DHT22;9952;47.122;-1.638;2023-02-22T17:35:00;9.20;99.90
19610;DHT22;9952;47.122;-1.638;2023-02-22T17:39:41;9.10;99.90
19610;DHT22;9952;47.122;-1.638;2023-02-22T17:44:24;9.00;99.90
19610;DHT22;9952;47.122;-1.638;2023-02-22T17:49:05;9.00;99.90
19610;DHT22;9952;47.122;-1.638;2023-02-22T17:53:46;9.10;99.90
19610;DHT22;9952;47.122;-1.638;2023-02-22T17:58:27;8.90;99.90
19610;DHT22;9952;47.122;-1.638;2023-02-22T18:03:16;8.80;99.90
19610;DHT22;9952;47.122;-1.638;2023-02-22T18:08:00;8.70;99.90
19610;DHT22;9952;47.122;-1.638;2023-02-22T18:12:41;8.40;99.90
19610;DHT22;9952;47.122;-1.638;2023-02-22T18:17:22;8.40;99.90
19610;DHT22;9952;47.122;-1.638;2023-02-22T18:22:03;8.30;99.90
19610;DHT22;9952;47.122;-1.638;2023-02-22T18:26:44;8.10;99.90
19610;DHT22;9952;47.122;-1.638;2023-02-22T18:31:24;7.90;99.90
19610;DHT22;9952;47.122;-1.638;2023-02-22T18:36:06;7.90;99.90
19610;DHT22;9952;47.122;-1.638;2023-02-22T18:40:47;8.00;99.90
19610;DHT22;9952;47.122;-1.638;2023-02-22T18:45:27;7.90;99.90
19610;DHT22;9952;47.122;-1.638;2023-02-22T18:50:10;7.90;99.90
19610;DHT22;9952;47.122;-1.638;2023-02-22T18:54:52;7.90;99.90
19610;DHT22;9952;47.122;-1.638;2023-02-22T18:59:33;7.80;99.90
19610;DHT22;9952;47.122;-1.638;2023-02-22T19:04:14;7.90;99.90
19610;DHT22;9952;47.122;-1.638;2023-02-22T19:09:00;7.90;99.90
19610;DHT22;9952;47.122;-1.638;2023-02-22T19:13:41;7.90;99.90
19610;DHT22;9952;47.122;-1.638;2023-02-22T19:18:22;7.90;99.90
19610;DHT22;9952;47.122;-1.638;2023-02-22T19:23:03;7.90;99.90
19610;DHT22;9952;47.122;-1.638;2023-02-22T19:27:43;8.00;99.90
19610;DHT22;9952;47.122;-1.638;2023-02-22T19:32:25;8.10;99.90
19610;DHT22;9952;47.122;-1.638;2023-02-22T19:37:05;8.10;99.90
19610;DHT22;9952;47.122;-1.638;2023-02-22T19:41:46;8.20;99.90
19610;DHT22;9952;47.122;-1.638;2023-02-22T19:46:27;8.20;99.90
19610;DHT22;9952;47.122;-1.638;2023-02-22T19:51:10;8.20;99.90
19610;DHT22;9952;47.122;-1.638;2023-02-22T19:55:51;8.20;99.90
19610;DHT22;9952;47.122;-1.638;2023-02-22T20:00:33;8.30;99.90
19610;DHT22;9952;47.122;-1.638;2023-02-22T20:05:14;8.20;99.90
19610;DHT22;9952;47.122;-1.638;2023-02-22T20:09:56;8.30;99.90
19610;DHT22;9952;47.122;-1.638;2023-02-22T20:14:37;8.30;99.90
19610;DHT22;9952;47.122;-1.638;2023-02-22T20:19:18;8.30;99.90
19610;DHT22;9952;47.122;-1.638;2023-02-22T20:24:03;8.30;99.90
19610;DHT22;9952;47.122;-1.638;2023-02-22T20:28:44;8.30;99.90
19610;DHT22;9952;47.122;-1.638;2023-02-22T20:33:25;8.30;99.90
19610;DHT22;9952;47.122;-1.638;2023-02-22T20:38:06;8.30;99.90
19610;DHT22;9952;47.122;-1.638;2023-02-22T20:42:47;8.20;99.90
19610;DHT22;9952;47.122;-1.638;2023-02-22T20:47:28;8.20;99.90
19610;DHT22;9952;47.122;-1.638;2023-02-22T20:52:08;8.20;99.90
19610;DHT22;9952;47.122;-1.638;2023-02-22T20:56:49;8.10;99.90
19610;DHT22;9952;47.122;-1.638;2023-02-22T21:01:30;8.10;99.90
19610;DHT22;9952;47.122;-1.638;2023-02-22T21:06:13;8.00;99.90
19610;DHT22;9952;47.122;-1.638;2023-02-22T21:10:57;8.00;99.90
19610;DHT22;9952;47.122;-1.638;2023-02-22T21:15:39;8.00;99.90
19610;DHT22;9952;47.122;-1.638;2023-02-22T21:20:22;8.00;99.90
19610;DHT22;9952;47.122;-1.638;2023-02-22T21:25:04;8.00;99.90
19610;DHT22;9952;47.122;-1.638;2023-02-22T21:29:45;8.10;99.90
19610;DHT22;9952;47.122;-1.638;2023-02-22T21:34:26;8.10;99.90
19610;DHT22;9952;47.122;-1.638;2023-02-22T21:39:06;8.10;99.90
19610;DHT22;9952;47.122;-1.638;2023-02-22T21:43:58;8.10;99.90
19610;DHT22;9952;47.122;-1.638;2023-02-22T21:48:40;8.10;99.90
19610;DHT22;9952;47.122;-1.638;2023-02-22T21:53:28;8.10;99.90
19610;DHT22;9952;47.122;-1.638;2023-02-22T21:58:08;7.90;99.90
19610;DHT22;9952;47.122;-1.638;2023-02-22T22:02:49;7.80;99.90
19610;DHT22;9952;47.122;-1.638;2023-02-22T22:07:30;7.70;99.90
19610;DHT22;9952;47.122;-1.638;2023-02-22T22:12:11;7.70;99.90
19610;DHT22;9952;47.122;-1.638;2023-02-22T22:16:57;7.60;99.90
19610;DHT22;9952;47.122;-1.638;2023-02-22T22:21:39;7.60;99.90
19610;DHT22;9952;47.122;-1.638;2023-02-22T22:26:22;7.60;99.90
19610;DHT22;9952;47.122;-1.638;2023-02-22T22:31:04;7.50;99.90
19610;DHT22;9952;47.122;-1.638;2023-02-22T22:35:45;7.50;99.90
19610;DHT22;9952;47.122;-1.638;2023-02-22T22:40:26;7.50;99.90
19610;DHT22;9952;47.122;-1.638;2023-02-22T22:45:08;7.60;99.90
19610;DHT22;9952;47.122;-1.638;2023-02-22T22:49:51;7.60;99.90
19610;DHT22;9952;47.122;-1.638;2023-02-22T22:54:38;7.60;99.90
19610;DHT22;9952;47.122;-1.638;2023-02-22T22:59:19;7.50;99.90
19610;DHT22;9952;47.122;-1.638;2023-02-22T23:04:03;7.50;99.90
19610;DHT22;9952;47.122;-1.638;2023-02-22T23:08:44;7.50;99.90
19610;DHT22;9952;47.122;-1.638;2023-02-22T23:13:24;7.40;99.90
19610;DHT22;9952;47.122;-1.638;2023-02-22T23:18:06;7.30;99.90
19610;DHT22;9952;47.122;-1.638;2023-02-22T23:22:47;7.20;99.90
19610;DHT22;9952;47.122;-1.638;2023-02-22T23:27:28;7.10;99.90
19610;DHT22;9952;47.122;-1.638;2023-02-22T23:32:09;7.00;99.90
19610;DHT22;9952;47.122;-1.638;2023-02-22T23:36:50;6.90;99.90
19610;DHT22;9952;47.122;-1.638;2023-02-22T23:41:33;6.80;99.90
19610;DHT22;9952;47.122;-1.638;2023-02-22T23:46:16;6.80;99.90
19610;DHT22;9952;47.122;-1.638;2023-02-22T23:51:06;6.70;99.90
19610;DHT22;9952;47.122;-1.638;2023-02-22T23:55:48;6.60;99.90
